createdAt,value
2018-08-23T00:01:47.072Z,18.14
2018-08-23T00:04:16.005Z,17.96
2018-08-23T00:06:49.994Z,18.23
2018-08-23T00:09:18.918Z,18.03
2018-08-23T00:11:47.947Z,18.06
2018-08-23T00:14:17.484Z,18.03
2018-08-23T00:16:49.447Z,17.91
2018-08-23T00:19:18.305Z,17.84
2018-08-23T00:21:50.759Z,17.77
2018-08-23T00:24:20.771Z,17.72
2018-08-23T00:26:54.372Z,17.68
2018-08-23T00:29:32.637Z,17.59
2018-08-23T00:32:05.693Z,17.51
2018-08-23T00:34:38.872Z,17.46
2018-08-23T00:37:08.446Z,17.44
2018-08-23T00:39:37.352Z,17.36
2018-08-23T00:42:07.576Z,17.31
2018-08-23T00:44:59.261Z,17.30
2018-08-23T00:47:29.970Z,17.22
2018-08-23T00:49:58.920Z,17.21
2018-08-23T00:52:58.819Z,17.20
2018-08-23T00:55:29.163Z,17.20
2018-08-23T00:57:58.065Z,17.23
2018-08-23T01:00:28.081Z,17.22
2018-08-23T01:03:04.906Z,17.19
2018-08-23T01:05:37.702Z,17.09
2018-08-23T01:08:07.550Z,17.00
2018-08-23T01:10:38.841Z,16.92
2018-08-23T01:13:07.819Z,16.88
2018-08-23T01:15:36.694Z,16.91
2018-08-23T01:18:19.369Z,16.92
2018-08-23T01:20:49.768Z,16.91
2018-08-23T01:23:18.708Z,16.80
2018-08-23T01:25:48.233Z,16.71
2018-08-23T01:28:17.126Z,16.70
2018-08-23T01:30:46.867Z,16.68
2018-08-23T01:33:16.990Z,16.71
2018-08-23T01:35:47.121Z,16.69
2018-08-23T01:38:16.640Z,17.00
2018-08-23T01:40:45.627Z,17.09
2018-08-23T01:43:14.618Z,16.81
2018-08-23T01:45:43.506Z,16.76
2018-08-23T01:48:12.487Z,16.71
2018-08-23T01:50:41.432Z,17.01
2018-08-23T01:53:10.307Z,16.77
2018-08-23T01:55:39.229Z,16.77
2018-08-23T01:58:08.093Z,16.59
2018-08-23T02:00:37.004Z,16.54
2018-08-23T02:03:05.943Z,16.51
2018-08-23T02:05:37.795Z,16.57
2018-08-23T02:08:07.527Z,16.51
2018-08-23T02:10:36.507Z,16.46
2018-08-23T02:13:10.108Z,16.72
2018-08-23T02:15:51.088Z,16.48
2018-08-23T02:18:19.983Z,16.79
2018-08-23T02:20:51.517Z,16.54
2018-08-23T02:23:20.417Z,16.45
2018-08-23T02:25:49.322Z,16.37
2018-08-23T02:28:18.208Z,16.33
2018-08-23T02:30:57.441Z,16.30
2018-08-23T02:33:27.078Z,16.22
2018-08-23T02:36:20.402Z,16.55
2018-08-23T02:38:51.991Z,16.26
2018-08-23T02:41:20.898Z,16.29
2018-08-23T02:43:49.917Z,16.26
2018-08-23T02:46:18.794Z,16.21
2018-08-23T02:48:47.724Z,16.19
2018-08-23T02:51:16.544Z,16.15
2018-08-23T02:53:48.954Z,16.01
2018-08-23T02:56:21.539Z,16.00
2018-08-23T02:59:06.264Z,15.95
2018-08-23T03:01:38.203Z,15.98
2018-08-23T03:04:17.083Z,16.01
2018-08-23T03:06:56.112Z,15.92
2018-08-23T03:09:28.036Z,15.90
2018-08-23T03:11:58.155Z,15.84
2018-08-23T03:14:27.935Z,15.82
2018-08-23T03:17:29.703Z,15.77
2018-08-23T03:20:20.651Z,16.10
2018-08-23T03:22:50.903Z,15.84
2018-08-23T03:25:24.198Z,15.75
2018-08-23T03:27:53.595Z,15.75
2018-08-23T03:30:23.131Z,15.78
2018-08-23T03:32:52.010Z,15.83
2018-08-23T03:35:20.984Z,16.15
2018-08-23T03:37:52.364Z,15.95
2018-08-23T03:40:21.289Z,15.91
2018-08-23T03:42:52.498Z,16.20
2018-08-23T03:45:30.274Z,15.94
2018-08-23T03:47:59.148Z,15.90
2018-08-23T03:50:28.144Z,15.88
2018-08-23T03:52:57.064Z,15.87
2018-08-23T03:55:26.479Z,15.83
2018-08-23T03:58:01.254Z,15.84
2018-08-23T04:00:48.065Z,16.16
2018-08-23T04:03:20.004Z,15.93
2018-08-23T04:05:48.951Z,15.94
2018-08-23T04:08:17.826Z,15.95
2018-08-23T04:10:48.924Z,15.98
2018-08-23T04:13:17.791Z,15.97
2018-08-23T04:15:46.654Z,15.91
2018-08-23T04:18:17.151Z,15.86
2018-08-23T04:20:59.472Z,15.83
2018-08-23T04:23:28.403Z,15.81
2018-08-23T04:25:59.052Z,15.81
2018-08-23T04:28:26.349Z,15.84
2018-08-23T04:30:59.446Z,15.88
2018-08-23T04:33:26.171Z,15.94
2018-08-23T04:35:55.068Z,15.97
2018-08-23T04:38:24.067Z,16.03
2018-08-23T04:41:05.762Z,16.11
2018-08-23T04:43:34.774Z,16.22
2018-08-23T04:46:03.628Z,16.26
2018-08-23T04:48:32.541Z,16.65
2018-08-23T04:51:01.523Z,16.46
2018-08-23T04:53:30.468Z,16.43
2018-08-23T04:55:59.399Z,16.41
2018-08-23T04:58:30.910Z,16.44
2018-08-23T05:00:59.837Z,16.47
2018-08-23T05:03:28.849Z,16.51
2018-08-23T05:05:57.879Z,16.59
2018-08-23T05:08:26.700Z,16.71
2018-08-23T05:10:55.698Z,16.81
2018-08-23T05:13:24.566Z,16.93
2018-08-23T05:15:53.478Z,17.04
2018-08-23T05:18:22.346Z,17.49
2018-08-23T05:20:51.291Z,17.34
2018-08-23T05:23:20.281Z,17.44
2018-08-23T05:25:49.091Z,17.51
2018-08-23T05:28:19.188Z,17.57
2018-08-23T05:30:49.066Z,17.65
2018-08-23T05:33:23.765Z,17.72
2018-08-23T05:35:52.626Z,17.81
2018-08-23T05:38:21.540Z,17.91
2018-08-23T05:40:54.849Z,17.99
2018-08-23T05:43:24.321Z,18.07
2018-08-23T05:45:54.593Z,18.11
2018-08-23T05:48:40.623Z,18.19
2018-08-23T05:51:10.883Z,18.28
2018-08-23T05:53:51.390Z,18.38
2018-08-23T05:56:20.524Z,18.49
2018-08-23T05:58:49.428Z,18.60
2018-08-23T06:01:18.350Z,18.70
2018-08-23T06:03:47.294Z,18.75
2018-08-23T06:06:16.303Z,18.89
2018-08-23T06:08:56.116Z,18.93
2018-08-23T06:11:25.094Z,19.00
2018-08-23T06:13:53.954Z,19.01
2018-08-23T06:16:22.882Z,19.15
2018-08-23T06:18:51.783Z,19.24
2018-08-23T06:21:20.700Z,19.34
2018-08-23T06:23:52.403Z,19.38
2018-08-23T06:26:33.404Z,19.42
2018-08-23T06:29:02.303Z,19.79
2018-08-23T06:31:31.187Z,19.50
2018-08-23T06:34:00.158Z,19.51
2018-08-23T06:36:29.939Z,19.57
2018-08-23T06:39:02.030Z,19.58
2018-08-23T06:41:30.966Z,19.60
2018-08-23T06:43:59.913Z,19.62
2018-08-23T06:46:28.799Z,19.61
2018-08-23T06:49:00.291Z,19.54
2018-08-23T06:51:26.675Z,19.62
2018-08-23T06:54:01.219Z,19.80
2018-08-23T06:56:30.588Z,20.23
2018-08-23T06:58:59.555Z,20.03
2018-08-23T07:01:47.829Z,20.06
2018-08-23T07:04:16.751Z,20.01
2018-08-23T07:06:45.711Z,19.98
2018-08-23T07:09:15.849Z,20.04
2018-08-23T07:11:45.190Z,20.17
2018-08-23T07:14:15.240Z,20.49
2018-08-23T07:16:45.588Z,20.71
2018-08-23T07:19:31.900Z,20.49
2018-08-23T07:22:02.705Z,20.71
2018-08-23T07:24:44.339Z,20.78
2018-08-23T07:27:17.517Z,20.91
2018-08-23T07:29:47.782Z,20.55
2018-08-23T07:32:23.571Z,20.48
2018-08-23T07:35:11.188Z,20.37
2018-08-23T07:37:41.447Z,20.27
2018-08-23T07:40:11.645Z,20.25
2018-08-23T07:42:41.878Z,20.82
2018-08-23T07:45:11.263Z,20.55
2018-08-23T07:47:50.525Z,20.63
2018-08-23T07:50:19.461Z,20.83
2018-08-23T07:52:52.557Z,21.33
2018-08-23T07:55:21.457Z,21.30
2018-08-23T07:57:54.955Z,21.16
2018-08-23T08:00:47.391Z,21.01
2018-08-23T08:03:21.968Z,20.78
2018-08-23T08:06:15.088Z,20.52
2018-08-23T08:08:25.659Z,20.35
2018-08-23T08:11:03.103Z,20.32
2018-08-23T08:13:37.225Z,20.18
2018-08-23T08:16:20.952Z,20.25
2018-08-23T08:18:55.932Z,20.24
2018-08-23T08:21:38.019Z,20.27
2018-08-23T08:27:30.748Z,20.07
2018-08-23T08:29:59.664Z,20.17
2018-08-23T08:32:28.531Z,20.18
2018-08-23T08:34:59.615Z,20.33
2018-08-23T08:37:27.314Z,20.53
2018-08-23T08:39:56.470Z,20.56
2018-08-23T08:42:32.774Z,20.58
2018-08-23T08:45:11.749Z,20.62
2018-08-23T08:47:41.797Z,20.88
2018-08-23T08:50:10.658Z,21.11
2018-08-23T08:52:39.545Z,21.24
2018-08-23T08:55:09.398Z,21.17
2018-08-23T08:57:45.573Z,21.06
2018-08-23T09:00:17.969Z,21.51
2018-08-23T09:02:50.243Z,21.48
2018-08-23T09:05:17.045Z,21.40
2018-08-23T09:07:52.907Z,21.34
2018-08-23T09:10:20.703Z,21.34
2018-08-23T09:12:49.679Z,21.44
2018-08-23T09:15:18.639Z,21.74
2018-08-23T09:17:47.546Z,22.17
2018-08-23T09:20:17.601Z,22.09
2018-08-23T09:22:50.899Z,22.40
2018-08-23T09:25:28.144Z,22.45
2018-08-23T09:27:57.005Z,22.28
2018-08-23T09:30:26.746Z,22.18
2018-08-23T09:32:55.964Z,21.79
2018-08-23T09:35:29.927Z,21.80
2018-08-23T09:38:00.141Z,22.01
2018-08-23T09:40:29.463Z,21.95
2018-08-23T09:43:02.196Z,22.03
2018-08-23T09:45:32.622Z,21.97
2018-08-23T09:48:04.596Z,21.98
2018-08-23T09:50:33.847Z,21.80
2018-08-23T09:53:09.109Z,21.65
2018-08-23T09:55:35.619Z,22.10
2018-08-23T09:58:04.497Z,22.05
2018-08-23T10:00:51.396Z,22.48
2018-08-23T10:03:37.840Z,22.53
2018-08-23T10:06:21.913Z,22.67
2018-08-23T10:09:17.604Z,22.81
2018-08-23T10:12:04.027Z,22.83
2018-08-23T10:14:50.920Z,22.70
2018-08-23T10:17:37.358Z,22.58
2018-08-23T10:20:25.671Z,22.66
2018-08-23T10:23:15.494Z,22.70
2018-08-23T10:25:51.820Z,22.74
2018-08-23T10:28:22.298Z,22.49
2018-08-23T10:30:52.380Z,22.41
2018-08-23T10:33:22.625Z,22.87
2018-08-23T10:36:05.473Z,22.70
2018-08-23T10:38:43.285Z,22.80
2018-08-23T10:41:20.648Z,23.17
2018-08-23T10:43:53.864Z,23.48
2018-08-23T10:46:27.640Z,23.86
2018-08-23T10:48:59.712Z,24.07
2018-08-23T10:51:32.445Z,25.44
2018-08-23T10:54:10.744Z,26.08
2018-08-23T10:56:40.196Z,26.76
2018-08-23T10:59:09.462Z,26.90
2018-08-23T11:01:38.231Z,27.22
2018-08-23T11:04:10.806Z,27.42
2018-08-23T11:06:57.173Z,27.50
2018-08-23T11:09:44.203Z,26.71
2018-08-23T11:12:30.755Z,26.63
2018-08-23T11:15:18.760Z,26.56
2018-08-23T11:18:15.439Z,27.03
2018-08-23T11:20:50.540Z,27.11
2018-08-23T11:23:26.721Z,28.86
2018-08-23T11:25:59.877Z,28.58
2018-08-23T11:28:28.700Z,29.05
2018-08-23T11:31:04.224Z,29.06
2018-08-23T11:33:36.060Z,28.57
2018-08-23T11:36:08.603Z,28.78
2018-08-23T11:38:37.585Z,28.58
2018-08-23T11:41:06.493Z,27.70
2018-08-23T11:43:35.482Z,27.33
2018-08-23T11:46:17.092Z,27.38
2018-08-23T11:48:45.383Z,27.16
2018-08-23T11:51:15.210Z,27.83
2018-08-23T11:53:44.781Z,27.80
2018-08-23T11:56:13.578Z,27.90
2018-08-23T11:58:43.008Z,27.55
2018-08-23T12:01:13.061Z,27.25
2018-08-23T12:03:42.338Z,26.69
2018-08-23T12:06:13.275Z,26.52
2018-08-23T12:08:42.599Z,26.89
2018-08-23T12:11:11.565Z,26.55
2018-08-23T12:13:44.925Z,27.17
2018-08-23T12:16:13.796Z,26.52
2018-08-23T12:18:44.735Z,26.40
2018-08-23T12:21:13.619Z,26.10
2018-08-23T12:23:42.550Z,26.71
2018-08-23T12:26:11.670Z,26.49
2018-08-23T12:28:58.440Z,26.44
2018-08-23T12:31:27.336Z,26.66
2018-08-23T12:34:05.089Z,27.02
2018-08-23T12:36:50.004Z,27.30
2018-08-23T12:39:37.162Z,27.22
2018-08-23T12:42:23.986Z,26.81
2018-08-23T12:44:52.941Z,26.84
2018-08-23T12:47:22.011Z,26.66
2018-08-23T12:49:51.092Z,26.89
2018-08-23T12:52:22.900Z,27.08
2018-08-23T12:54:51.815Z,27.01
2018-08-23T12:57:20.652Z,26.52
2018-08-23T12:59:49.646Z,26.49
2018-08-23T13:02:18.621Z,26.37
2018-08-23T13:04:47.425Z,26.51
2018-08-23T13:07:16.345Z,27.09
2018-08-23T13:09:45.685Z,26.81
2018-08-23T13:12:15.042Z,26.75
2018-08-23T13:14:43.890Z,26.59
2018-08-23T13:17:13.153Z,26.18
2018-08-23T13:19:43.384Z,26.16
2018-08-23T13:22:12.271Z,26.16
2018-08-23T13:25:00.253Z,26.16
2018-08-23T13:27:33.565Z,26.07
2018-08-23T13:30:03.640Z,25.84
2018-08-23T13:32:32.772Z,25.33
2018-08-23T13:35:07.121Z,25.11
2018-08-23T13:37:36.071Z,24.98
2018-08-23T13:40:05.881Z,25.30
2018-08-23T13:42:59.108Z,25.13
2018-08-23T13:45:21.895Z,25.49
2018-08-23T13:47:50.679Z,25.95
2018-08-23T13:50:19.595Z,26.27
2018-08-23T13:52:48.653Z,26.37
2018-08-23T13:55:17.506Z,26.13
2018-08-23T13:57:46.372Z,26.36
2018-08-23T14:00:32.999Z,26.42
2018-08-23T14:03:01.968Z,26.02
2018-08-23T14:05:30.836Z,26.05
2018-08-23T14:07:59.729Z,26.08
2018-08-23T14:10:28.618Z,25.96
2018-08-23T14:12:57.654Z,25.93
2018-08-23T14:15:44.440Z,25.67
2018-08-23T14:18:15.013Z,25.67
2018-08-23T14:20:42.316Z,25.74
2018-08-23T14:23:13.345Z,26.16
2018-08-23T14:25:42.194Z,25.94
2018-08-23T14:28:11.092Z,25.88
2018-08-23T14:30:40.031Z,25.89
2018-08-23T14:33:09.072Z,25.69
2018-08-23T14:35:38.745Z,25.54
2018-08-23T14:38:11.216Z,25.18
2018-08-23T14:40:40.188Z,24.99
2018-08-23T14:43:09.492Z,24.92
2018-08-23T14:45:38.810Z,25.01
2018-08-23T14:48:20.405Z,25.03
2018-08-23T14:50:54.688Z,24.82
2018-08-23T14:53:33.280Z,25.10
2018-08-23T14:56:20.666Z,25.06
2018-08-23T14:58:49.586Z,25.20
2018-08-23T15:01:18.479Z,25.26
2018-08-23T15:03:47.347Z,25.10
2018-08-23T15:06:16.249Z,25.20
2018-08-23T15:08:45.119Z,25.20
2018-08-23T15:11:14.116Z,25.03
2018-08-23T15:13:43.137Z,24.94
2018-08-23T15:16:12.007Z,25.01
2018-08-23T15:18:40.937Z,25.05
2018-08-23T15:21:09.880Z,25.13
2018-08-23T15:23:38.778Z,25.24
2018-08-23T15:26:07.787Z,25.17
2018-08-23T15:28:36.613Z,25.17
2018-08-23T15:31:05.650Z,24.99
2018-08-23T15:33:37.316Z,25.05
2018-08-23T15:36:06.513Z,25.02
2018-08-23T15:38:43.568Z,24.94
2018-08-23T15:41:12.552Z,25.14
2018-08-23T15:43:41.467Z,25.38
2018-08-23T15:46:10.364Z,24.92
2018-08-23T15:48:39.362Z,24.79
2018-08-23T15:51:08.249Z,24.89
2018-08-23T15:53:37.129Z,24.85
2018-08-23T15:56:06.370Z,24.94
2018-08-23T15:58:35.516Z,24.76
2018-08-23T16:01:06.144Z,24.82
2018-08-23T16:03:34.839Z,24.69
2018-08-23T16:06:03.727Z,24.64
2018-08-23T16:08:50.730Z,24.61
2018-08-23T16:11:21.567Z,24.64
2018-08-23T16:13:50.490Z,24.62
2018-08-23T16:16:37.204Z,24.47
2018-08-23T16:19:12.426Z,24.54
2018-08-23T16:21:41.796Z,24.45
2018-08-23T16:24:10.740Z,24.53
2018-08-23T16:26:57.511Z,24.35
2018-08-23T16:29:26.416Z,24.38
2018-08-23T16:31:55.405Z,24.83
2018-08-23T16:34:24.221Z,24.74
2018-08-23T16:36:53.189Z,24.82
2018-08-23T16:39:22.070Z,24.92
2018-08-23T16:41:50.967Z,24.94
2018-08-23T16:44:19.864Z,24.76
2018-08-23T16:46:48.822Z,24.70
2018-08-23T16:49:17.752Z,24.61
2018-08-23T16:51:46.649Z,24.35
2018-08-23T16:54:15.624Z,24.39
2018-08-23T16:56:44.462Z,24.35
2018-08-23T16:59:13.299Z,24.29
2018-08-23T17:01:44.643Z,24.11
2018-08-23T17:04:13.592Z,24.14
2018-08-23T17:06:42.404Z,24.07
2018-08-23T17:09:11.530Z,24.31
2018-08-23T17:11:40.454Z,24.01
2018-08-23T17:14:09.358Z,23.95
2018-08-23T17:16:56.223Z,23.91
2018-08-23T17:19:28.293Z,23.84
2018-08-23T17:21:57.485Z,23.76
2018-08-23T17:24:26.490Z,23.82
2018-08-23T17:26:55.387Z,23.80
2018-08-23T17:29:24.369Z,23.81
2018-08-23T17:31:55.918Z,23.75
2018-08-23T17:34:24.886Z,23.68
2018-08-23T17:36:56.301Z,23.97
2018-08-23T17:39:22.937Z,23.72
2018-08-23T17:41:51.770Z,23.58
2018-08-23T17:44:22.498Z,23.49
2018-08-23T17:46:49.857Z,23.48
2018-08-23T17:49:18.727Z,23.46
2018-08-23T17:51:47.588Z,23.31
2018-08-23T17:54:16.525Z,23.31
2018-08-23T17:56:45.424Z,23.33
2018-08-23T17:59:14.352Z,23.26
2018-08-23T18:01:43.325Z,23.23
2018-08-23T18:04:12.341Z,23.27
2018-08-23T18:06:41.378Z,23.24
2018-08-23T18:09:12.022Z,23.28
2018-08-23T18:11:41.007Z,23.25
2018-08-23T18:14:10.112Z,23.19
2018-08-23T18:16:56.782Z,23.18
2018-08-23T18:19:25.677Z,23.07
2018-08-23T18:21:55.367Z,23.14
2018-08-23T18:24:24.272Z,23.12
2018-08-23T18:26:53.165Z,23.02
2018-08-23T18:29:22.096Z,23.09
2018-08-23T18:31:51.079Z,23.09
2018-08-23T18:34:19.982Z,23.09
2018-08-23T18:36:50.660Z,23.04
2018-08-23T18:39:19.634Z,23.03
2018-08-23T18:41:48.526Z,22.95
2018-08-23T18:44:17.420Z,23.01
2018-08-23T18:46:46.385Z,22.99
2018-08-23T18:49:17.064Z,23.02
2018-08-23T18:51:44.118Z,22.95
2018-08-23T18:54:13.093Z,22.98
2018-08-23T18:56:42.050Z,22.97
2018-08-23T18:59:12.993Z,22.93
2018-08-23T19:01:39.781Z,22.97
2018-08-23T19:04:08.690Z,22.97
2018-08-23T19:06:40.105Z,22.98
2018-08-23T19:09:11.618Z,22.99
2018-08-23T19:11:40.494Z,23.25
2018-08-23T19:14:09.444Z,22.97
2018-08-23T19:16:55.966Z,23.23
2018-08-23T19:19:24.855Z,22.71
2018-08-23T19:21:53.793Z,22.62
2018-08-23T19:24:22.653Z,22.55
2018-08-23T19:26:51.635Z,22.45
2018-08-23T19:29:20.510Z,22.35
2018-08-23T19:31:49.507Z,22.21
2018-08-23T19:34:18.444Z,22.18
2018-08-23T19:36:47.380Z,22.09
2018-08-23T19:39:16.286Z,22.02
2018-08-23T19:41:45.281Z,21.96
2018-08-23T19:44:14.334Z,22.00
2018-08-23T19:47:00.896Z,21.95
2018-08-23T19:49:47.699Z,21.96
2018-08-23T19:52:16.601Z,21.86
2018-08-23T19:54:45.504Z,21.79
2018-08-23T19:57:14.588Z,21.76
2018-08-23T19:59:43.466Z,21.69
2018-08-23T20:02:12.481Z,21.65
2018-08-23T20:04:42.394Z,21.69
2018-08-23T20:07:12.077Z,21.64
2018-08-23T20:09:41.186Z,21.69
2018-08-23T20:12:10.730Z,21.74
2018-08-23T20:14:39.656Z,21.78
2018-08-23T20:17:10.895Z,21.76
2018-08-23T20:19:39.825Z,21.62
2018-08-23T20:22:09.197Z,21.47
2018-08-23T20:24:38.124Z,21.25
2018-08-23T20:27:07.041Z,21.13
2018-08-23T20:29:35.936Z,21.05
2018-08-23T20:32:04.781Z,20.89
2018-08-23T20:34:33.679Z,20.75
2018-08-23T20:37:02.657Z,20.70
2018-08-23T20:39:31.654Z,20.66
2018-08-23T20:42:00.449Z,20.69
2018-08-23T20:44:29.419Z,20.72
2018-08-23T20:46:58.374Z,20.56
2018-08-23T20:49:27.288Z,20.52
2018-08-23T20:51:56.147Z,20.49
2018-08-23T20:54:25.134Z,20.26
2018-08-23T20:56:54.036Z,20.36
2018-08-23T20:59:22.943Z,20.54
2018-08-23T21:01:51.923Z,20.33
2018-08-23T21:04:20.837Z,20.27
2018-08-23T21:06:49.675Z,20.25
2018-08-23T21:09:18.565Z,20.18
2018-08-23T21:11:47.514Z,20.14
2018-08-23T21:14:16.494Z,20.17
2018-08-23T21:16:45.303Z,20.17
2018-08-23T21:19:14.208Z,20.19
2018-08-23T21:21:43.105Z,20.20
2018-08-23T21:24:12.030Z,20.21
2018-08-23T21:26:40.896Z,20.20
2018-08-23T21:29:09.849Z,20.17
2018-08-23T21:31:38.679Z,20.12
2018-08-23T21:34:07.735Z,20.04
2018-08-23T21:36:36.726Z,20.04
2018-08-23T21:39:07.685Z,19.97
2018-08-23T21:41:36.611Z,19.95
2018-08-23T21:44:05.645Z,19.90
2018-08-23T21:46:34.532Z,19.88
2018-08-23T21:49:03.443Z,19.91
2018-08-23T21:51:32.303Z,19.88
2018-08-23T21:54:01.244Z,19.88
2018-08-23T21:56:30.129Z,19.84
2018-08-23T21:58:59.036Z,19.85
2018-08-23T22:01:27.994Z,19.72
2018-08-23T22:03:56.854Z,19.81
2018-08-23T22:06:25.801Z,19.65
2018-08-23T22:08:54.772Z,19.58
2018-08-23T22:12:19.136Z,19.58
2018-08-23T22:14:49.883Z,19.57
2018-08-23T22:17:19.493Z,19.55
2018-08-23T22:19:48.523Z,19.52
2018-08-23T22:22:17.685Z,19.48
2018-08-23T22:24:46.677Z,19.45
2018-08-23T22:27:16.693Z,19.70
2018-08-23T22:29:46.755Z,19.53
2018-08-23T22:32:15.797Z,19.41
2018-08-23T22:34:44.764Z,19.26
2018-08-23T22:37:13.832Z,19.31
2018-08-23T22:39:42.986Z,19.29
2018-08-23T22:42:12.085Z,19.30
2018-08-23T22:44:41.072Z,19.26
2018-08-23T22:47:10.191Z,19.21
2018-08-23T22:49:41.817Z,19.20
2018-08-23T22:52:10.702Z,19.42
2018-08-23T22:54:39.730Z,19.13
2018-08-23T22:57:08.707Z,19.03
2018-08-23T22:59:37.732Z,18.96
2018-08-23T23:02:06.764Z,18.86
2018-08-23T23:04:42.603Z,18.80
2018-08-23T23:07:09.878Z,18.74
2018-08-23T23:09:38.906Z,18.66
2018-08-23T23:12:07.964Z,18.60
2018-08-23T23:14:36.964Z,18.58
2018-08-23T23:17:07.143Z,18.51
2018-08-23T23:19:36.232Z,18.46
2018-08-23T23:22:05.457Z,18.39
2018-08-23T23:24:52.444Z,18.33
2018-08-23T23:27:21.414Z,18.25
2018-08-23T23:29:50.397Z,18.52
2018-08-23T23:32:19.391Z,18.60
2018-08-23T23:34:48.458Z,18.28
2018-08-23T23:37:17.454Z,18.21
2018-08-23T23:39:46.454Z,18.17
2018-08-23T23:42:15.456Z,18.12
2018-08-23T23:44:44.460Z,18.06
2018-08-23T23:47:13.345Z,17.97
2018-08-23T23:49:42.370Z,17.92
2018-08-23T23:52:11.232Z,17.88
2018-08-23T23:54:40.110Z,17.87
2018-08-23T23:57:09.087Z,17.83
2018-08-23T23:59:37.893Z,17.71
